sensor_id;sensor_type;location;lat;lon;timestamp;P1;durP1;ratioP1;P2;durP2;ratioP2
21480;SDS011;10902;48.158;8.634;2023-09-19T00:00:17;7.97;;;3.80;;
21480;SDS011;10902;48.158;8.634;2023-09-19T00:03:04;6.63;;;2.90;;
21480;SDS011;10902;48.158;8.634;2023-09-19T00:05:51;5.28;;;3.05;;
21480;SDS011;10902;48.158;8.634;2023-09-19T00:08:37;6.05;;;3.28;;
21480;SDS011;10902;48.158;8.634;2023-09-19T00:11:22;6.70;;;3.17;;
21480;SDS011;10902;48.158;8.634;2023-09-19T00:14:11;6.00;;;3.28;;
21480;SDS011;10902;48.158;8.634;2023-09-19T00:16:59;9.45;;;3.47;;
21480;SDS011;10902;48.158;8.634;2023-09-19T00:19:45;4.25;;;2.13;;
21480;SDS011;10902;48.158;8.634;2023-09-19T00:22:31;4.47;;;2.13;;
21480;SDS011;10902;48.158;8.634;2023-09-19T00:25:17;3.92;;;2.03;;
21480;SDS011;10902;48.158;8.634;2023-09-19T00:28:06;5.13;;;1.90;;
21480;SDS011;10902;48.158;8.634;2023-09-19T00:30:52;4.15;;;1.70;;
21480;SDS011;10902;48.158;8.634;2023-09-19T00:33:40;5.13;;;1.88;;
21480;SDS011;10902;48.158;8.634;2023-09-19T00:36:25;3.75;;;2.00;;
21480;SDS011;10902;48.158;8.634;2023-09-19T00:39:11;3.63;;;1.60;;
21480;SDS011;10902;48.158;8.634;2023-09-19T00:41:57;4.22;;;1.70;;
21480;SDS011;10902;48.158;8.634;2023-09-19T00:44:42;6.90;;;2.05;;
21480;SDS011;10902;48.158;8.634;2023-09-19T00:47:28;4.65;;;1.75;;
21480;SDS011;10902;48.158;8.634;2023-09-19T00:50:15;4.68;;;1.77;;
21480;SDS011;10902;48.158;8.634;2023-09-19T00:53:07;4.43;;;2.00;;
21480;SDS011;10902;48.158;8.634;2023-09-19T00:55:54;3.63;;;1.63;;
21480;SDS011;10902;48.158;8.634;2023-09-19T00:58:41;6.00;;;1.67;;
21480;SDS011;10902;48.158;8.634;2023-09-19T01:01:26;4.25;;;1.90;;
21480;SDS011;10902;48.158;8.634;2023-09-19T01:04:14;4.65;;;1.85;;
21480;SDS011;10902;48.158;8.634;2023-09-19T01:06:59;5.32;;;1.92;;
21480;SDS011;10902;48.158;8.634;2023-09-19T01:09:45;4.85;;;1.75;;
21480;SDS011;10902;48.158;8.634;2023-09-19T01:12:54;3.58;;;1.38;;
21480;SDS011;10902;48.158;8.634;2023-09-19T01:25:19;4.57;;;1.48;;
21480;SDS011;10902;48.158;8.634;2023-09-19T01:31:42;5.60;;;1.30;;
21480;SDS011;10902;48.158;8.634;2023-09-19T01:34:46;4.75;;;1.30;;
21480;SDS011;10902;48.158;8.634;2023-09-19T01:37:48;4.53;;;1.38;;
21480;SDS011;10902;48.158;8.634;2023-09-19T01:40:34;3.50;;;1.40;;
21480;SDS011;10902;48.158;8.634;2023-09-19T01:43:33;5.07;;;1.55;;
21480;SDS011;10902;48.158;8.634;2023-09-19T01:46:30;4.57;;;1.50;;
21480;SDS011;10902;48.158;8.634;2023-09-19T01:49:33;3.95;;;1.42;;
21480;SDS011;10902;48.158;8.634;2023-09-19T01:56:07;6.10;;;1.73;;
21480;SDS011;10902;48.158;8.634;2023-09-19T01:58:58;5.10;;;1.65;;
21480;SDS011;10902;48.158;8.634;2023-09-19T02:01:49;4.28;;;1.58;;
21480;SDS011;10902;48.158;8.634;2023-09-19T02:04:38;5.63;;;1.83;;
21480;SDS011;10902;48.158;8.634;2023-09-19T02:07:23;3.95;;;1.60;;
21480;SDS011;10902;48.158;8.634;2023-09-19T02:10:09;2.88;;;1.30;;
21480;SDS011;10902;48.158;8.634;2023-09-19T02:12:57;4.47;;;1.30;;
21480;SDS011;10902;48.158;8.634;2023-09-19T02:15:44;4.80;;;1.52;;
21480;SDS011;10902;48.158;8.634;2023-09-19T02:18:34;7.88;;;1.50;;
21480;SDS011;10902;48.158;8.634;2023-09-19T02:21:20;3.83;;;1.48;;
21480;SDS011;10902;48.158;8.634;2023-09-19T02:24:07;4.28;;;1.55;;
21480;SDS011;10902;48.158;8.634;2023-09-19T02:26:56;4.47;;;1.85;;
21480;SDS011;10902;48.158;8.634;2023-09-19T02:29:42;4.45;;;1.65;;
21480;SDS011;10902;48.158;8.634;2023-09-19T02:32:33;4.20;;;1.38;;
21480;SDS011;10902;48.158;8.634;2023-09-19T02:35:23;3.58;;;1.75;;
21480;SDS011;10902;48.158;8.634;2023-09-19T02:38:11;4.97;;;1.63;;
21480;SDS011;10902;48.158;8.634;2023-09-19T02:40:57;5.63;;;1.83;;
21480;SDS011;10902;48.158;8.634;2023-09-19T02:43:43;5.25;;;2.08;;
21480;SDS011;10902;48.158;8.634;2023-09-19T02:46:28;4.85;;;1.75;;
21480;SDS011;10902;48.158;8.634;2023-09-19T02:49:14;5.30;;;1.98;;
21480;SDS011;10902;48.158;8.634;2023-09-19T02:51:59;5.75;;;1.92;;
21480;SDS011;10902;48.158;8.634;2023-09-19T02:54:45;4.13;;;1.80;;
21480;SDS011;10902;48.158;8.634;2023-09-19T02:57:31;4.05;;;1.60;;
21480;SDS011;10902;48.158;8.634;2023-09-19T03:00:18;4.03;;;1.85;;
21480;SDS011;10902;48.158;8.634;2023-09-19T03:03:07;5.15;;;1.85;;
21480;SDS011;10902;48.158;8.634;2023-09-19T03:05:53;3.80;;;1.70;;
21480;SDS011;10902;48.158;8.634;2023-09-19T03:08:48;4.90;;;1.80;;
21480;SDS011;10902;48.158;8.634;2023-09-19T03:11:36;4.45;;;1.52;;
21480;SDS011;10902;48.158;8.634;2023-09-19T03:14:22;3.67;;;1.65;;
21480;SDS011;10902;48.158;8.634;2023-09-19T03:17:08;5.25;;;1.90;;
21480;SDS011;10902;48.158;8.634;2023-09-19T03:19:54;5.32;;;1.60;;
21480;SDS011;10902;48.158;8.634;2023-09-19T03:22:40;4.93;;;1.75;;
21480;SDS011;10902;48.158;8.634;2023-09-19T03:25:25;4.78;;;1.83;;
21480;SDS011;10902;48.158;8.634;2023-09-19T03:28:11;4.30;;;1.50;;
21480;SDS011;10902;48.158;8.634;2023-09-19T03:31:03;4.25;;;1.40;;
21480;SDS011;10902;48.158;8.634;2023-09-19T03:33:50;5.00;;;1.60;;
21480;SDS011;10902;48.158;8.634;2023-09-19T03:36:36;3.95;;;1.50;;
21480;SDS011;10902;48.158;8.634;2023-09-19T03:39:21;4.63;;;1.40;;
21480;SDS011;10902;48.158;8.634;2023-09-19T03:42:07;7.28;;;1.90;;
21480;SDS011;10902;48.158;8.634;2023-09-19T03:44:53;6.55;;;1.30;;
21480;SDS011;10902;48.158;8.634;2023-09-19T03:47:40;5.72;;;1.60;;
21480;SDS011;10902;48.158;8.634;2023-09-19T03:50:25;4.20;;;1.65;;
21480;SDS011;10902;48.158;8.634;2023-09-19T03:53:11;3.97;;;1.50;;
21480;SDS011;10902;48.158;8.634;2023-09-19T03:55:57;4.55;;;1.50;;
21480;SDS011;10902;48.158;8.634;2023-09-19T03:58:42;3.28;;;1.40;;
21480;SDS011;10902;48.158;8.634;2023-09-19T04:01:28;4.18;;;1.45;;
21480;SDS011;10902;48.158;8.634;2023-09-19T04:04:16;3.60;;;1.60;;
21480;SDS011;10902;48.158;8.634;2023-09-19T04:07:04;5.43;;;1.23;;
21480;SDS011;10902;48.158;8.634;2023-09-19T04:09:49;5.93;;;1.40;;
21480;SDS011;10902;48.158;8.634;2023-09-19T04:12:35;5.38;;;1.33;;
21480;SDS011;10902;48.158;8.634;2023-09-19T04:15:26;4.28;;;1.10;;
21480;SDS011;10902;48.158;8.634;2023-09-19T04:18:12;5.68;;;1.55;;
21480;SDS011;10902;48.158;8.634;2023-09-19T04:20:58;4.25;;;1.20;;
21480;SDS011;10902;48.158;8.634;2023-09-19T04:23:44;4.88;;;1.65;;
21480;SDS011;10902;48.158;8.634;2023-09-19T04:26:30;5.13;;;1.60;;
21480;SDS011;10902;48.158;8.634;2023-09-19T04:29:16;5.05;;;2.00;;
21480;SDS011;10902;48.158;8.634;2023-09-19T04:32:10;4.90;;;1.50;;
21480;SDS011;10902;48.158;8.634;2023-09-19T04:34:55;3.08;;;1.30;;
21480;SDS011;10902;48.158;8.634;2023-09-19T04:37:45;3.65;;;1.30;;
21480;SDS011;10902;48.158;8.634;2023-09-19T04:40:30;5.60;;;1.60;;
21480;SDS011;10902;48.158;8.634;2023-09-19T04:43:17;3.85;;;1.15;;
21480;SDS011;10902;48.158;8.634;2023-09-19T04:46:03;5.05;;;1.30;;
21480;SDS011;10902;48.158;8.634;2023-09-19T04:48:51;3.47;;;1.25;;
21480;SDS011;10902;48.158;8.634;2023-09-19T04:51:37;3.88;;;1.27;;
21480;SDS011;10902;48.158;8.634;2023-09-19T04:54:22;4.75;;;1.40;;
21480;SDS011;10902;48.158;8.634;2023-09-19T04:57:08;4.28;;;1.42;;
21480;SDS011;10902;48.158;8.634;2023-09-19T04:59:53;3.53;;;1.52;;
21480;SDS011;10902;48.158;8.634;2023-09-19T05:02:39;6.25;;;1.30;;
21480;SDS011;10902;48.158;8.634;2023-09-19T05:05:25;4.97;;;1.63;;
21480;SDS011;10902;48.158;8.634;2023-09-19T05:08:11;4.18;;;1.58;;
21480;SDS011;10902;48.158;8.634;2023-09-19T05:11:01;3.42;;;1.40;;
21480;SDS011;10902;48.158;8.634;2023-09-19T05:13:47;5.15;;;1.77;;
21480;SDS011;10902;48.158;8.634;2023-09-19T05:16:35;6.88;;;1.95;;
21480;SDS011;10902;48.158;8.634;2023-09-19T05:19:20;4.70;;;1.60;;
21480;SDS011;10902;48.158;8.634;2023-09-19T05:22:06;4.30;;;1.50;;
21480;SDS011;10902;48.158;8.634;2023-09-19T05:24:52;5.07;;;1.45;;
21480;SDS011;10902;48.158;8.634;2023-09-19T05:27:37;4.78;;;1.60;;
21480;SDS011;10902;48.158;8.634;2023-09-19T05:30:23;2.75;;;1.02;;
21480;SDS011;10902;48.158;8.634;2023-09-19T05:33:12;3.35;;;1.10;;
21480;SDS011;10902;48.158;8.634;2023-09-19T05:35:58;3.13;;;1.02;;
21480;SDS011;10902;48.158;8.634;2023-09-19T05:38:49;2.83;;;0.90;;
21480;SDS011;10902;48.158;8.634;2023-09-19T05:41:36;4.18;;;1.13;;
21480;SDS011;10902;48.158;8.634;2023-09-19T05:44:21;3.35;;;1.17;;
21480;SDS011;10902;48.158;8.634;2023-09-19T05:47:11;3.58;;;1.15;;
21480;SDS011;10902;48.158;8.634;2023-09-19T05:49:58;4.03;;;1.38;;
21480;SDS011;10902;48.158;8.634;2023-09-19T05:52:47;3.50;;;1.23;;
21480;SDS011;10902;48.158;8.634;2023-09-19T05:55:37;4.88;;;1.55;;
21480;SDS011;10902;48.158;8.634;2023-09-19T05:58:23;4.70;;;1.35;;
21480;SDS011;10902;48.158;8.634;2023-09-19T06:01:08;3.35;;;1.00;;
21480;SDS011;10902;48.158;8.634;2023-09-19T06:03:54;3.65;;;1.02;;
21480;SDS011;10902;48.158;8.634;2023-09-19T06:06:40;2.67;;;1.00;;
21480;SDS011;10902;48.158;8.634;2023-09-19T06:09:26;3.42;;;1.15;;
21480;SDS011;10902;48.158;8.634;2023-09-19T06:12:12;2.47;;;1.00;;
21480;SDS011;10902;48.158;8.634;2023-09-19T06:15:02;2.85;;;0.82;;
21480;SDS011;10902;48.158;8.634;2023-09-19T06:17:51;4.10;;;0.90;;
21480;SDS011;10902;48.158;8.634;2023-09-19T06:20:40;5.03;;;1.40;;
21480;SDS011;10902;48.158;8.634;2023-09-19T06:23:29;4.07;;;1.08;;
21480;SDS011;10902;48.158;8.634;2023-09-19T06:26:18;3.20;;;1.17;;
21480;SDS011;10902;48.158;8.634;2023-09-19T06:29:03;6.25;;;1.67;;
21480;SDS011;10902;48.158;8.634;2023-09-19T06:31:52;2.63;;;0.90;;
21480;SDS011;10902;48.158;8.634;2023-09-19T06:34:38;3.00;;;1.20;;
21480;SDS011;10902;48.158;8.634;2023-09-19T06:37:29;7.18;;;1.75;;
21480;SDS011;10902;48.158;8.634;2023-09-19T06:40:15;5.10;;;1.40;;
21480;SDS011;10902;48.158;8.634;2023-09-19T06:43:01;3.70;;;1.15;;
21480;SDS011;10902;48.158;8.634;2023-09-19T06:45:47;4.88;;;1.40;;
21480;SDS011;10902;48.158;8.634;2023-09-19T06:48:33;3.42;;;1.15;;
21480;SDS011;10902;48.158;8.634;2023-09-19T06:51:29;3.22;;;1.10;;
21480;SDS011;10902;48.158;8.634;2023-09-19T06:54:14;4.38;;;1.35;;
21480;SDS011;10902;48.158;8.634;2023-09-19T06:57:00;3.65;;;1.10;;
21480;SDS011;10902;48.158;8.634;2023-09-19T06:59:46;6.38;;;0.98;;
21480;SDS011;10902;48.158;8.634;2023-09-19T07:02:32;3.58;;;1.23;;
21480;SDS011;10902;48.158;8.634;2023-09-19T07:05:17;4.80;;;1.30;;
21480;SDS011;10902;48.158;8.634;2023-09-19T07:08:03;4.53;;;1.20;;
21480;SDS011;10902;48.158;8.634;2023-09-19T07:10:51;2.83;;;0.90;;
21480;SDS011;10902;48.158;8.634;2023-09-19T07:13:38;3.42;;;0.82;;
21480;SDS011;10902;48.158;8.634;2023-09-19T07:16:24;3.22;;;0.77;;
21480;SDS011;10902;48.158;8.634;2023-09-19T07:19:14;2.47;;;0.98;;
21480;SDS011;10902;48.158;8.634;2023-09-19T07:22:00;3.42;;;0.88;;
21480;SDS011;10902;48.158;8.634;2023-09-19T07:24:47;3.55;;;1.15;;
21480;SDS011;10902;48.158;8.634;2023-09-19T07:27:33;3.28;;;1.10;;
21480;SDS011;10902;48.158;8.634;2023-09-19T07:30:19;2.38;;;0.90;;
21480;SDS011;10902;48.158;8.634;2023-09-19T07:33:05;3.85;;;1.17;;
21480;SDS011;10902;48.158;8.634;2023-09-19T07:35:51;5.18;;;1.17;;
21480;SDS011;10902;48.158;8.634;2023-09-19T07:38:37;4.03;;;1.00;;
21480;SDS011;10902;48.158;8.634;2023-09-19T07:41:25;3.50;;;0.93;;
21480;SDS011;10902;48.158;8.634;2023-09-19T07:44:12;3.28;;;1.27;;
21480;SDS011;10902;48.158;8.634;2023-09-19T07:46:57;5.45;;;1.30;;
21480;SDS011;10902;48.158;8.634;2023-09-19T07:49:45;4.60;;;1.15;;
21480;SDS011;10902;48.158;8.634;2023-09-19T07:52:32;4.82;;;1.30;;
21480;SDS011;10902;48.158;8.634;2023-09-19T07:55:18;3.42;;;1.30;;
21480;SDS011;10902;48.158;8.634;2023-09-19T07:58:08;3.92;;;1.00;;
21480;SDS011;10902;48.158;8.634;2023-09-19T08:01:05;3.72;;;1.10;;
21480;SDS011;10902;48.158;8.634;2023-09-19T08:03:54;3.92;;;1.00;;
21480;SDS011;10902;48.158;8.634;2023-09-19T08:06:40;3.72;;;1.00;;
21480;SDS011;10902;48.158;8.634;2023-09-19T08:09:26;2.33;;;0.90;;
21480;SDS011;10902;48.158;8.634;2023-09-19T08:12:12;2.22;;;0.70;;
21480;SDS011;10902;48.158;8.634;2023-09-19T08:14:59;3.00;;;0.80;;
21480;SDS011;10902;48.158;8.634;2023-09-19T08:17:45;2.15;;;0.60;;
21480;SDS011;10902;48.158;8.634;2023-09-19T08:20:31;3.33;;;0.80;;
21480;SDS011;10902;48.158;8.634;2023-09-19T08:23:17;3.38;;;1.00;;
21480;SDS011;10902;48.158;8.634;2023-09-19T08:26:05;3.20;;;0.90;;
21480;SDS011;10902;48.158;8.634;2023-09-19T08:28:53;2.92;;;0.90;;
21480;SDS011;10902;48.158;8.634;2023-09-19T08:31:40;3.90;;;0.70;;
21480;SDS011;10902;48.158;8.634;2023-09-19T08:34:26;2.78;;;0.90;;
21480;SDS011;10902;48.158;8.634;2023-09-19T08:37:18;2.97;;;0.77;;
21480;SDS011;10902;48.158;8.634;2023-09-19T08:40:18;3.22;;;0.80;;
21480;SDS011;10902;48.158;8.634;2023-09-19T08:43:05;2.85;;;0.75;;
21480;SDS011;10902;48.158;8.634;2023-09-19T08:45:52;3.67;;;1.05;;
21480;SDS011;10902;48.158;8.634;2023-09-19T08:48:54;2.60;;;0.63;;
21480;SDS011;10902;48.158;8.634;2023-09-19T08:51:48;3.17;;;0.77;;
21480;SDS011;10902;48.158;8.634;2023-09-19T08:54:43;3.08;;;0.73;;
21480;SDS011;10902;48.158;8.634;2023-09-19T08:57:33;3.40;;;0.73;;
21480;SDS011;10902;48.158;8.634;2023-09-19T09:00:22;2.75;;;0.80;;
21480;SDS011;10902;48.158;8.634;2023-09-19T09:03:13;2.40;;;0.70;;
21480;SDS011;10902;48.158;8.634;2023-09-19T09:06:00;2.80;;;0.68;;
21480;SDS011;10902;48.158;8.634;2023-09-19T09:08:46;2.58;;;0.80;;
21480;SDS011;10902;48.158;8.634;2023-09-19T09:11:35;3.17;;;0.70;;
21480;SDS011;10902;48.158;8.634;2023-09-19T09:14:24;3.10;;;1.08;;
21480;SDS011;10902;48.158;8.634;2023-09-19T09:17:10;2.80;;;0.73;;
21480;SDS011;10902;48.158;8.634;2023-09-19T09:19:57;3.28;;;0.88;;
21480;SDS011;10902;48.158;8.634;2023-09-19T09:22:52;4.57;;;0.90;;
21480;SDS011;10902;48.158;8.634;2023-09-19T09:25:49;3.50;;;0.80;;
21480;SDS011;10902;48.158;8.634;2023-09-19T09:28:44;3.45;;;1.05;;
21480;SDS011;10902;48.158;8.634;2023-09-19T09:31:30;2.80;;;0.80;;
21480;SDS011;10902;48.158;8.634;2023-09-19T09:34:16;3.88;;;0.80;;
21480;SDS011;10902;48.158;8.634;2023-09-19T09:37:03;2.38;;;0.70;;
21480;SDS011;10902;48.158;8.634;2023-09-19T09:39:56;3.22;;;1.00;;
21480;SDS011;10902;48.158;8.634;2023-09-19T09:42:59;2.83;;;1.02;;
21480;SDS011;10902;48.158;8.634;2023-09-19T09:45:45;2.90;;;0.77;;
21480;SDS011;10902;48.158;8.634;2023-09-19T09:48:33;3.65;;;0.95;;
21480;SDS011;10902;48.158;8.634;2023-09-19T09:51:30;2.83;;;0.77;;
21480;SDS011;10902;48.158;8.634;2023-09-19T09:54:16;2.58;;;0.80;;
21480;SDS011;10902;48.158;8.634;2023-09-19T09:57:09;3.60;;;0.90;;
21480;SDS011;10902;48.158;8.634;2023-09-19T09:59:59;4.15;;;1.02;;
21480;SDS011;10902;48.158;8.634;2023-09-19T10:02:57;3.88;;;0.80;;
21480;SDS011;10902;48.158;8.634;2023-09-19T10:05:44;1.88;;;0.57;;
21480;SDS011;10902;48.158;8.634;2023-09-19T10:08:30;3.30;;;0.90;;
21480;SDS011;10902;48.158;8.634;2023-09-19T10:11:16;3.30;;;0.80;;
21480;SDS011;10902;48.158;8.634;2023-09-19T10:14:04;3.05;;;0.85;;
21480;SDS011;10902;48.158;8.634;2023-09-19T10:16:51;3.72;;;1.00;;
21480;SDS011;10902;48.158;8.634;2023-09-19T10:19:54;2.55;;;0.73;;
21480;SDS011;10902;48.158;8.634;2023-09-19T10:22:42;2.80;;;0.75;;
21480;SDS011;10902;48.158;8.634;2023-09-19T10:25:32;4.07;;;1.40;;
21480;SDS011;10902;48.158;8.634;2023-09-19T10:28:18;3.05;;;0.98;;
21480;SDS011;10902;48.158;8.634;2023-09-19T10:31:10;4.18;;;1.15;;
21480;SDS011;10902;48.158;8.634;2023-09-19T10:33:59;8.75;;;1.17;;
21480;SDS011;10902;48.158;8.634;2023-09-19T10:36:51;3.85;;;0.90;;
21480;SDS011;10902;48.158;8.634;2023-09-19T10:39:39;2.75;;;0.90;;
21480;SDS011;10902;48.158;8.634;2023-09-19T10:42:25;3.10;;;0.80;;
21480;SDS011;10902;48.158;8.634;2023-09-19T10:45:15;3.47;;;0.80;;
21480;SDS011;10902;48.158;8.634;2023-09-19T10:48:02;2.95;;;0.85;;
21480;SDS011;10902;48.158;8.634;2023-09-19T10:50:50;2.53;;;0.88;;
21480;SDS011;10902;48.158;8.634;2023-09-19T10:53:53;3.03;;;0.85;;
21480;SDS011;10902;48.158;8.634;2023-09-19T10:56:44;3.92;;;1.00;;
21480;SDS011;10902;48.158;8.634;2023-09-19T10:59:33;2.50;;;0.75;;
21480;SDS011;10902;48.158;8.634;2023-09-19T11:02:20;3.67;;;0.85;;
21480;SDS011;10902;48.158;8.634;2023-09-19T11:05:12;3.35;;;1.20;;
21480;SDS011;10902;48.158;8.634;2023-09-19T11:07:58;3.50;;;1.15;;
21480;SDS011;10902;48.158;8.634;2023-09-19T11:10:49;3.50;;;1.33;;
21480;SDS011;10902;48.158;8.634;2023-09-19T11:13:36;2.90;;;0.98;;
21480;SDS011;10902;48.158;8.634;2023-09-19T11:16:23;3.58;;;1.20;;
21480;SDS011;10902;48.158;8.634;2023-09-19T11:19:08;3.45;;;1.20;;
21480;SDS011;10902;48.158;8.634;2023-09-19T11:21:56;6.10;;;1.40;;
21480;SDS011;10902;48.158;8.634;2023-09-19T11:24:42;4.97;;;1.23;;
21480;SDS011;10902;48.158;8.634;2023-09-19T11:27:27;4.03;;;1.60;;
21480;SDS011;10902;48.158;8.634;2023-09-19T11:30:26;4.07;;;1.55;;
21480;SDS011;10902;48.158;8.634;2023-09-19T11:33:28;3.63;;;1.20;;
21480;SDS011;10902;48.158;8.634;2023-09-19T11:36:18;3.03;;;1.10;;
21480;SDS011;10902;48.158;8.634;2023-09-19T11:39:24;3.38;;;1.20;;
21480;SDS011;10902;48.158;8.634;2023-09-19T11:48:45;3.00;;;1.20;;
21480;SDS011;10902;48.158;8.634;2023-09-19T11:51:39;3.58;;;1.33;;
21480;SDS011;10902;48.158;8.634;2023-09-19T11:54:28;3.92;;;1.13;;
21480;SDS011;10902;48.158;8.634;2023-09-19T11:57:20;5.25;;;1.65;;
21480;SDS011;10902;48.158;8.634;2023-09-19T12:00:06;4.47;;;1.35;;
21480;SDS011;10902;48.158;8.634;2023-09-19T12:02:55;3.85;;;1.20;;
21480;SDS011;10902;48.158;8.634;2023-09-19T12:05:47;3.10;;;1.00;;
21480;SDS011;10902;48.158;8.634;2023-09-19T12:08:32;3.17;;;1.00;;
21480;SDS011;10902;48.158;8.634;2023-09-19T12:11:20;2.80;;;1.20;;
21480;SDS011;10902;48.158;8.634;2023-09-19T12:14:08;3.25;;;1.17;;
21480;SDS011;10902;48.158;8.634;2023-09-19T12:16:54;3.50;;;1.13;;
21480;SDS011;10902;48.158;8.634;2023-09-19T12:19:49;3.08;;;1.00;;
21480;SDS011;10902;48.158;8.634;2023-09-19T12:22:42;3.78;;;1.38;;
21480;SDS011;10902;48.158;8.634;2023-09-19T12:25:40;3.05;;;1.13;;
21480;SDS011;10902;48.158;8.634;2023-09-19T12:28:41;3.10;;;1.00;;
21480;SDS011;10902;48.158;8.634;2023-09-19T12:31:27;7.03;;;1.40;;
21480;SDS011;10902;48.158;8.634;2023-09-19T12:34:15;3.10;;;1.20;;
21480;SDS011;10902;48.158;8.634;2023-09-19T12:37:19;5.03;;;1.60;;
21480;SDS011;10902;48.158;8.634;2023-09-19T12:40:08;2.83;;;0.98;;
21480;SDS011;10902;48.158;8.634;2023-09-19T12:43:07;3.70;;;1.33;;
21480;SDS011;10902;48.158;8.634;2023-09-19T12:45:54;3.45;;;1.48;;
21480;SDS011;10902;48.158;8.634;2023-09-19T12:48:39;4.05;;;1.30;;
21480;SDS011;10902;48.158;8.634;2023-09-19T12:51:39;2.90;;;1.10;;
21480;SDS011;10902;48.158;8.634;2023-09-19T12:54:39;2.97;;;1.00;;
21480;SDS011;10902;48.158;8.634;2023-09-19T12:57:25;4.32;;;1.77;;
21480;SDS011;10902;48.158;8.634;2023-09-19T13:00:11;2.67;;;0.98;;
21480;SDS011;10902;48.158;8.634;2023-09-19T13:06:11;3.10;;;1.10;;
21480;SDS011;10902;48.158;8.634;2023-09-19T13:09:07;3.83;;;1.30;;
21480;SDS011;10902;48.158;8.634;2023-09-19T13:12:01;4.80;;;1.58;;
21480;SDS011;10902;48.158;8.634;2023-09-19T13:15:06;3.35;;;1.10;;
21480;SDS011;10902;48.158;8.634;2023-09-19T13:17:56;3.90;;;1.38;;
21480;SDS011;10902;48.158;8.634;2023-09-19T13:20:53;2.92;;;1.17;;
21480;SDS011;10902;48.158;8.634;2023-09-19T13:24:24;3.40;;;1.30;;
21480;SDS011;10902;48.158;8.634;2023-09-19T13:27:22;3.17;;;1.27;;
21480;SDS011;10902;48.158;8.634;2023-09-19T13:30:10;3.20;;;1.15;;
21480;SDS011;10902;48.158;8.634;2023-09-19T13:33:09;3.65;;;1.30;;
21480;SDS011;10902;48.158;8.634;2023-09-19T13:35:55;4.00;;;1.10;;
21480;SDS011;10902;48.158;8.634;2023-09-19T13:38:42;3.97;;;1.40;;
21480;SDS011;10902;48.158;8.634;2023-09-19T13:41:33;3.75;;;1.20;;
21480;SDS011;10902;48.158;8.634;2023-09-19T13:44:22;4.32;;;1.23;;
21480;SDS011;10902;48.158;8.634;2023-09-19T13:47:09;3.90;;;1.20;;
21480;SDS011;10902;48.158;8.634;2023-09-19T13:49:55;3.50;;;1.10;;
21480;SDS011;10902;48.158;8.634;2023-09-19T13:52:42;3.13;;;1.10;;
21480;SDS011;10902;48.158;8.634;2023-09-19T13:55:31;4.93;;;1.40;;
21480;SDS011;10902;48.158;8.634;2023-09-19T13:58:17;2.63;;;0.90;;
21480;SDS011;10902;48.158;8.634;2023-09-19T14:01:03;3.58;;;1.10;;
21480;SDS011;10902;48.158;8.634;2023-09-19T14:03:49;2.70;;;0.90;;
21480;SDS011;10902;48.158;8.634;2023-09-19T14:06:36;2.80;;;0.90;;
21480;SDS011;10902;48.158;8.634;2023-09-19T14:09:22;2.67;;;0.80;;
21480;SDS011;10902;48.158;8.634;2023-09-19T14:12:09;2.75;;;0.98;;
21480;SDS011;10902;48.158;8.634;2023-09-19T14:14:55;2.80;;;0.90;;
21480;SDS011;10902;48.158;8.634;2023-09-19T14:17:41;3.90;;;1.08;;
21480;SDS011;10902;48.158;8.634;2023-09-19T14:20:32;3.95;;;1.20;;
21480;SDS011;10902;48.158;8.634;2023-09-19T14:23:28;2.63;;;0.95;;
21480;SDS011;10902;48.158;8.634;2023-09-19T14:26:14;2.88;;;0.90;;
21480;SDS011;10902;48.158;8.634;2023-09-19T14:29:10;2.88;;;0.82;;
21480;SDS011;10902;48.158;8.634;2023-09-19T14:31:59;2.72;;;0.80;;
21480;SDS011;10902;48.158;8.634;2023-09-19T14:34:54;3.13;;;1.00;;
21480;SDS011;10902;48.158;8.634;2023-09-19T14:37:40;3.97;;;0.90;;
21480;SDS011;10902;48.158;8.634;2023-09-19T14:40:28;3.05;;;0.80;;
21480;SDS011;10902;48.158;8.634;2023-09-19T14:43:16;2.55;;;0.80;;
21480;SDS011;10902;48.158;8.634;2023-09-19T14:46:03;2.70;;;0.90;;
21480;SDS011;10902;48.158;8.634;2023-09-19T14:48:52;3.20;;;0.75;;
21480;SDS011;10902;48.158;8.634;2023-09-19T14:51:38;3.35;;;0.80;;
21480;SDS011;10902;48.158;8.634;2023-09-19T14:54:29;2.50;;;0.80;;
21480;SDS011;10902;48.158;8.634;2023-09-19T14:57:15;2.50;;;1.00;;
21480;SDS011;10902;48.158;8.634;2023-09-19T15:00:02;2.95;;;0.80;;
21480;SDS011;10902;48.158;8.634;2023-09-19T15:02:50;2.58;;;0.90;;
21480;SDS011;10902;48.158;8.634;2023-09-19T15:05:58;2.63;;;0.80;;
21480;SDS011;10902;48.158;8.634;2023-09-19T15:08:54;4.72;;;1.10;;
21480;SDS011;10902;48.158;8.634;2023-09-19T15:11:40;2.38;;;0.70;;
21480;SDS011;10902;48.158;8.634;2023-09-19T15:14:25;2.58;;;0.80;;
21480;SDS011;10902;48.158;8.634;2023-09-19T15:17:11;2.72;;;0.82;;
21480;SDS011;10902;48.158;8.634;2023-09-19T15:19:57;2.08;;;0.70;;
21480;SDS011;10902;48.158;8.634;2023-09-19T15:22:42;2.55;;;0.93;;
21480;SDS011;10902;48.158;8.634;2023-09-19T15:25:29;3.10;;;0.70;;
21480;SDS011;10902;48.158;8.634;2023-09-19T15:28:14;2.75;;;0.90;;
21480;SDS011;10902;48.158;8.634;2023-09-19T15:31:01;3.25;;;0.80;;
21480;SDS011;10902;48.158;8.634;2023-09-19T15:33:51;2.67;;;0.85;;
21480;SDS011;10902;48.158;8.634;2023-09-19T15:36:36;3.65;;;0.90;;
21480;SDS011;10902;48.158;8.634;2023-09-19T15:39:29;2.80;;;0.88;;
21480;SDS011;10902;48.158;8.634;2023-09-19T15:42:18;2.55;;;0.88;;
21480;SDS011;10902;48.158;8.634;2023-09-19T15:45:05;3.85;;;1.00;;
21480;SDS011;10902;48.158;8.634;2023-09-19T15:47:51;2.55;;;0.80;;
21480;SDS011;10902;48.158;8.634;2023-09-19T15:50:38;2.20;;;0.70;;
21480;SDS011;10902;48.158;8.634;2023-09-19T15:53:23;1.90;;;0.80;;
21480;SDS011;10902;48.158;8.634;2023-09-19T15:56:09;2.63;;;0.90;;
21480;SDS011;10902;48.158;8.634;2023-09-19T15:58:59;2.35;;;0.70;;
21480;SDS011;10902;48.158;8.634;2023-09-19T16:01:45;3.90;;;0.98;;
21480;SDS011;10902;48.158;8.634;2023-09-19T16:04:31;2.25;;;0.70;;
21480;SDS011;10902;48.158;8.634;2023-09-19T16:07:16;3.72;;;0.88;;
21480;SDS011;10902;48.158;8.634;2023-09-19T16:10:04;2.17;;;0.70;;
21480;SDS011;10902;48.158;8.634;2023-09-19T16:12:50;2.88;;;0.80;;
21480;SDS011;10902;48.158;8.634;2023-09-19T16:15:41;4.07;;;0.90;;
21480;SDS011;10902;48.158;8.634;2023-09-19T16:18:29;2.83;;;0.82;;
21480;SDS011;10902;48.158;8.634;2023-09-19T16:21:18;2.53;;;0.70;;
21480;SDS011;10902;48.158;8.634;2023-09-19T16:24:04;2.70;;;0.80;;
21480;SDS011;10902;48.158;8.634;2023-09-19T16:26:50;2.08;;;0.80;;
21480;SDS011;10902;48.158;8.634;2023-09-19T16:29:37;2.50;;;0.80;;
21480;SDS011;10902;48.158;8.634;2023-09-19T16:32:23;2.72;;;0.80;;
21480;SDS011;10902;48.158;8.634;2023-09-19T16:35:09;4.70;;;0.90;;
21480;SDS011;10902;48.158;8.634;2023-09-19T16:38:13;2.15;;;0.73;;
21480;SDS011;10902;48.158;8.634;2023-09-19T16:40:59;2.85;;;0.90;;
21480;SDS011;10902;48.158;8.634;2023-09-19T16:43:44;2.65;;;0.75;;
21480;SDS011;10902;48.158;8.634;2023-09-19T16:46:30;2.67;;;0.70;;
21480;SDS011;10902;48.158;8.634;2023-09-19T16:49:16;2.40;;;0.90;;
21480;SDS011;10902;48.158;8.634;2023-09-19T16:52:02;3.25;;;0.80;;
21480;SDS011;10902;48.158;8.634;2023-09-19T16:54:49;2.72;;;0.80;;
21480;SDS011;10902;48.158;8.634;2023-09-19T16:57:38;2.65;;;0.90;;
21480;SDS011;10902;48.158;8.634;2023-09-19T17:00:23;2.40;;;0.77;;
21480;SDS011;10902;48.158;8.634;2023-09-19T17:03:11;3.03;;;0.73;;
21480;SDS011;10902;48.158;8.634;2023-09-19T17:05:58;3.25;;;0.80;;
21480;SDS011;10902;48.158;8.634;2023-09-19T17:08:43;2.47;;;0.73;;
21480;SDS011;10902;48.158;8.634;2023-09-19T17:11:30;2.65;;;0.70;;
21480;SDS011;10902;48.158;8.634;2023-09-19T17:14:16;2.97;;;1.00;;
21480;SDS011;10902;48.158;8.634;2023-09-19T17:17:03;2.97;;;0.70;;
21480;SDS011;10902;48.158;8.634;2023-09-19T17:19:49;2.03;;;0.43;;
21480;SDS011;10902;48.158;8.634;2023-09-19T17:22:34;3.22;;;0.88;;